sensor_id;sensor_type;location;lat;lon;timestamp;P1;durP1;ratioP1;P2;durP2;ratioP2
40046;SDS011;31510;48.122;11.576;2022-12-11T00:01:40;31.85;;;15.57;;
40046;SDS011;31510;48.122;11.576;2022-12-11T00:04:06;28.33;;;15.25;;
40046;SDS011;31510;48.122;11.576;2022-12-11T00:06:31;31.30;;;15.52;;
40046;SDS011;31510;48.122;11.576;2022-12-11T00:08:57;32.70;;;18.92;;
40046;SDS011;31510;48.122;11.576;2022-12-11T00:11:22;32.35;;;17.25;;
40046;SDS011;31510;48.122;11.576;2022-12-11T00:13:48;29.20;;;14.63;;
40046;SDS011;31510;48.122;11.576;2022-12-11T00:16:13;25.42;;;14.00;;
40046;SDS011;31510;48.122;11.576;2022-12-11T00:18:39;26.65;;;15.85;;
40046;SDS011;31510;48.122;11.576;2022-12-11T00:21:05;29.17;;;14.95;;
40046;SDS011;31510;48.122;11.576;2022-12-11T00:23:33;27.70;;;13.60;;
40046;SDS011;31510;48.122;11.576;2022-12-11T00:25:59;28.00;;;13.43;;
40046;SDS011;31510;48.122;11.576;2022-12-11T00:28:25;28.05;;;12.73;;
40046;SDS011;31510;48.122;11.576;2022-12-11T00:30:50;28.27;;;13.45;;
40046;SDS011;31510;48.122;11.576;2022-12-11T00:33:15;30.30;;;14.63;;
40046;SDS011;31510;48.122;11.576;2022-12-11T00:35:42;26.40;;;13.35;;
40046;SDS011;31510;48.122;11.576;2022-12-11T00:38:14;27.95;;;13.98;;
40046;SDS011;31510;48.122;11.576;2022-12-11T00:40:41;24.40;;;14.07;;
40046;SDS011;31510;48.122;11.576;2022-12-11T00:43:07;26.25;;;13.75;;
40046;SDS011;31510;48.122;11.576;2022-12-11T00:45:36;27.10;;;13.93;;
40046;SDS011;31510;48.122;11.576;2022-12-11T00:48:02;26.60;;;15.10;;
40046;SDS011;31510;48.122;11.576;2022-12-11T00:50:28;30.55;;;16.23;;
40046;SDS011;31510;48.122;11.576;2022-12-11T00:52:53;28.70;;;15.43;;
40046;SDS011;31510;48.122;11.576;2022-12-11T00:55:19;31.75;;;15.02;;
40046;SDS011;31510;48.122;11.576;2022-12-11T00:57:44;26.35;;;14.50;;
40046;SDS011;31510;48.122;11.576;2022-12-11T01:00:09;27.58;;;14.60;;
40046;SDS011;31510;48.122;11.576;2022-12-11T01:02:36;29.17;;;14.30;;
40046;SDS011;31510;48.122;11.576;2022-12-11T01:05:02;25.92;;;12.93;;
40046;SDS011;31510;48.122;11.576;2022-12-11T01:07:27;25.55;;;14.77;;
40046;SDS011;31510;48.122;11.576;2022-12-11T01:09:53;27.90;;;14.30;;
40046;SDS011;31510;48.122;11.576;2022-12-11T01:12:37;27.52;;;14.48;;
40046;SDS011;31510;48.122;11.576;2022-12-11T01:15:02;28.23;;;14.93;;
40046;SDS011;31510;48.122;11.576;2022-12-11T01:17:27;28.27;;;14.15;;
40046;SDS011;31510;48.122;11.576;2022-12-11T01:19:53;24.65;;;13.10;;
40046;SDS011;31510;48.122;11.576;2022-12-11T01:22:18;25.05;;;14.25;;
40046;SDS011;31510;48.122;11.576;2022-12-11T01:24:44;30.50;;;15.02;;
40046;SDS011;31510;48.122;11.576;2022-12-11T01:27:09;25.30;;;14.52;;
40046;SDS011;31510;48.122;11.576;2022-12-11T01:29:34;32.20;;;17.02;;
40046;SDS011;31510;48.122;11.576;2022-12-11T01:32:00;25.88;;;15.45;;
40046;SDS011;31510;48.122;11.576;2022-12-11T01:34:27;27.83;;;14.38;;
40046;SDS011;31510;48.122;11.576;2022-12-11T01:36:53;32.00;;;16.35;;
40046;SDS011;31510;48.122;11.576;2022-12-11T01:39:18;28.52;;;15.45;;
40046;SDS011;31510;48.122;11.576;2022-12-11T01:41:44;33.53;;;18.30;;
40046;SDS011;31510;48.122;11.576;2022-12-11T01:46:42;30.73;;;15.45;;
40046;SDS011;31510;48.122;11.576;2022-12-11T01:49:08;30.00;;;15.80;;
40046;SDS011;31510;48.122;11.576;2022-12-11T01:51:38;27.45;;;13.40;;
40046;SDS011;31510;48.122;11.576;2022-12-11T01:54:11;26.30;;;13.88;;
40046;SDS011;31510;48.122;11.576;2022-12-11T01:56:38;28.20;;;13.68;;
40046;SDS011;31510;48.122;11.576;2022-12-11T01:59:07;25.60;;;14.38;;
40046;SDS011;31510;48.122;11.576;2022-12-11T02:01:36;27.90;;;13.38;;
40046;SDS011;31510;48.122;11.576;2022-12-11T02:04:06;29.10;;;13.73;;
40046;SDS011;31510;48.122;11.576;2022-12-11T02:09:01;23.45;;;11.98;;
40046;SDS011;31510;48.122;11.576;2022-12-11T02:11:52;25.10;;;12.85;;
40046;SDS011;31510;48.122;11.576;2022-12-11T02:14:43;25.45;;;13.05;;
40046;SDS011;31510;48.122;11.576;2022-12-11T02:17:21;26.17;;;13.82;;
40046;SDS011;31510;48.122;11.576;2022-12-11T02:25:21;21.60;;;10.57;;
40046;SDS011;31510;48.122;11.576;2022-12-11T02:30:46;23.88;;;11.40;;
40046;SDS011;31510;48.122;11.576;2022-12-11T02:33:24;23.00;;;11.85;;
40046;SDS011;31510;48.122;11.576;2022-12-11T02:35:57;24.92;;;11.10;;
40046;SDS011;31510;48.122;11.576;2022-12-11T02:38:25;21.45;;;10.15;;
40046;SDS011;31510;48.122;11.576;2022-12-11T02:40:55;21.10;;;11.18;;
40046;SDS011;31510;48.122;11.576;2022-12-11T02:43:22;19.52;;;10.15;;
40046;SDS011;31510;48.122;11.576;2022-12-11T02:45:49;22.85;;;11.82;;
40046;SDS011;31510;48.122;11.576;2022-12-11T02:48:16;21.58;;;11.38;;
40046;SDS011;31510;48.122;11.576;2022-12-11T02:50:45;21.63;;;10.05;;
40046;SDS011;31510;48.122;11.576;2022-12-11T02:53:13;22.73;;;11.05;;
40046;SDS011;31510;48.122;11.576;2022-12-11T02:55:42;19.25;;;10.85;;
40046;SDS011;31510;48.122;11.576;2022-12-11T02:58:21;20.50;;;9.75;;
40046;SDS011;31510;48.122;11.576;2022-12-11T03:00:50;18.60;;;10.07;;
40046;SDS011;31510;48.122;11.576;2022-12-11T03:03:15;19.95;;;9.95;;
40046;SDS011;31510;48.122;11.576;2022-12-11T03:05:41;18.30;;;9.48;;
40046;SDS011;31510;48.122;11.576;2022-12-11T03:08:07;17.45;;;9.15;;
40046;SDS011;31510;48.122;11.576;2022-12-11T03:10:32;19.92;;;10.95;;
40046;SDS011;31510;48.122;11.576;2022-12-11T03:12:58;18.40;;;10.05;;
40046;SDS011;31510;48.122;11.576;2022-12-11T03:15:30;19.05;;;9.23;;
40046;SDS011;31510;48.122;11.576;2022-12-11T03:18:12;17.02;;;8.98;;
40046;SDS011;31510;48.122;11.576;2022-12-11T03:20:44;18.77;;;9.43;;
40046;SDS011;31510;48.122;11.576;2022-12-11T03:23:15;18.10;;;9.55;;
40046;SDS011;31510;48.122;11.576;2022-12-11T03:25:48;18.65;;;8.85;;
40046;SDS011;31510;48.122;11.576;2022-12-11T03:28:18;19.85;;;9.75;;
40046;SDS011;31510;48.122;11.576;2022-12-11T03:30:48;18.63;;;9.15;;
40046;SDS011;31510;48.122;11.576;2022-12-11T03:33:22;18.58;;;9.75;;
40046;SDS011;31510;48.122;11.576;2022-12-11T03:35:55;19.52;;;9.65;;
40046;SDS011;31510;48.122;11.576;2022-12-11T03:38:32;18.00;;;10.40;;
40046;SDS011;31510;48.122;11.576;2022-12-11T03:41:02;17.98;;;9.27;;
40046;SDS011;31510;48.122;11.576;2022-12-11T03:43:29;21.08;;;10.95;;
40046;SDS011;31510;48.122;11.576;2022-12-11T03:45:56;16.67;;;9.10;;
40046;SDS011;31510;48.122;11.576;2022-12-11T03:48:24;18.55;;;10.05;;
40046;SDS011;31510;48.122;11.576;2022-12-11T03:50:54;21.27;;;9.90;;
40046;SDS011;31510;48.122;11.576;2022-12-11T03:53:21;19.17;;;9.23;;
40046;SDS011;31510;48.122;11.576;2022-12-11T03:55:47;17.23;;;8.30;;
40046;SDS011;31510;48.122;11.576;2022-12-11T03:58:13;17.10;;;9.10;;
40046;SDS011;31510;48.122;11.576;2022-12-11T04:00:39;18.85;;;9.93;;
40046;SDS011;31510;48.122;11.576;2022-12-11T04:03:04;15.40;;;8.60;;
40046;SDS011;31510;48.122;11.576;2022-12-11T04:05:45;17.48;;;9.25;;
40046;SDS011;31510;48.122;11.576;2022-12-11T04:08:12;15.23;;;8.18;;
40046;SDS011;31510;48.122;11.576;2022-12-11T04:10:38;18.80;;;9.25;;
40046;SDS011;31510;48.122;11.576;2022-12-11T04:13:05;15.52;;;8.00;;
40046;SDS011;31510;48.122;11.576;2022-12-11T04:15:30;18.75;;;8.85;;
40046;SDS011;31510;48.122;11.576;2022-12-11T04:17:55;15.70;;;7.82;;
40046;SDS011;31510;48.122;11.576;2022-12-11T04:20:39;14.57;;;7.95;;
40046;SDS011;31510;48.122;11.576;2022-12-11T04:23:23;16.15;;;8.15;;
40046;SDS011;31510;48.122;11.576;2022-12-11T04:26:11;14.80;;;8.13;;
40046;SDS011;31510;48.122;11.576;2022-12-11T04:28:40;15.65;;;7.90;;
40046;SDS011;31510;48.122;11.576;2022-12-11T04:31:09;18.10;;;9.82;;
40046;SDS011;31510;48.122;11.576;2022-12-11T04:33:39;17.65;;;8.60;;
40046;SDS011;31510;48.122;11.576;2022-12-11T04:36:05;20.60;;;8.75;;
40046;SDS011;31510;48.122;11.576;2022-12-11T04:38:31;15.98;;;8.77;;
40046;SDS011;31510;48.122;11.576;2022-12-11T04:40:57;13.63;;;7.28;;
40046;SDS011;31510;48.122;11.576;2022-12-11T04:43:23;16.52;;;8.95;;
40046;SDS011;31510;48.122;11.576;2022-12-11T04:45:48;16.15;;;8.63;;
40046;SDS011;31510;48.122;11.576;2022-12-11T04:48:14;18.33;;;9.05;;
40046;SDS011;31510;48.122;11.576;2022-12-11T04:50:39;16.67;;;8.05;;
40046;SDS011;31510;48.122;11.576;2022-12-11T04:53:04;18.23;;;8.30;;
40046;SDS011;31510;48.122;11.576;2022-12-11T04:55:30;21.40;;;10.20;;
40046;SDS011;31510;48.122;11.576;2022-12-11T04:57:55;15.40;;;8.00;;
40046;SDS011;31510;48.122;11.576;2022-12-11T05:00:20;15.45;;;7.80;;
40046;SDS011;31510;48.122;11.576;2022-12-11T05:02:46;15.93;;;7.60;;
40046;SDS011;31510;48.122;11.576;2022-12-11T05:05:11;17.52;;;9.63;;
40046;SDS011;31510;48.122;11.576;2022-12-11T05:07:37;15.75;;;7.70;;
40046;SDS011;31510;48.122;11.576;2022-12-11T05:10:03;18.92;;;10.43;;
40046;SDS011;31510;48.122;11.576;2022-12-11T05:12:30;15.38;;;7.82;;
40046;SDS011;31510;48.122;11.576;2022-12-11T05:14:56;18.25;;;8.77;;
40046;SDS011;31510;48.122;11.576;2022-12-11T05:17:21;20.38;;;9.25;;
40046;SDS011;31510;48.122;11.576;2022-12-11T05:19:47;19.80;;;9.75;;
40046;SDS011;31510;48.122;11.576;2022-12-11T05:22:14;15.75;;;8.73;;
40046;SDS011;31510;48.122;11.576;2022-12-11T05:24:39;17.10;;;8.45;;
40046;SDS011;31510;48.122;11.576;2022-12-11T05:27:05;16.52;;;8.85;;
40046;SDS011;31510;48.122;11.576;2022-12-11T05:29:30;13.77;;;8.00;;
40046;SDS011;31510;48.122;11.576;2022-12-11T05:31:55;14.68;;;7.72;;
40046;SDS011;31510;48.122;11.576;2022-12-11T05:34:21;15.98;;;9.10;;
40046;SDS011;31510;48.122;11.576;2022-12-11T05:36:46;14.13;;;7.63;;
40046;SDS011;31510;48.122;11.576;2022-12-11T05:39:11;13.52;;;7.18;;
40046;SDS011;31510;48.122;11.576;2022-12-11T05:41:37;15.32;;;7.10;;
40046;SDS011;31510;48.122;11.576;2022-12-11T05:44:02;14.13;;;7.45;;
40046;SDS011;31510;48.122;11.576;2022-12-11T05:46:28;13.73;;;7.10;;
40046;SDS011;31510;48.122;11.576;2022-12-11T05:48:55;12.10;;;6.78;;
40046;SDS011;31510;48.122;11.576;2022-12-11T05:51:23;12.35;;;6.30;;
40046;SDS011;31510;48.122;11.576;2022-12-11T05:53:49;12.20;;;7.03;;
40046;SDS011;31510;48.122;11.576;2022-12-11T05:56:20;12.82;;;6.47;;
40046;SDS011;31510;48.122;11.576;2022-12-11T05:58:47;11.68;;;5.95;;
40046;SDS011;31510;48.122;11.576;2022-12-11T06:01:14;13.70;;;6.90;;
40046;SDS011;31510;48.122;11.576;2022-12-11T06:04:00;16.20;;;6.88;;
40046;SDS011;31510;48.122;11.576;2022-12-11T06:06:26;14.55;;;6.78;;
40046;SDS011;31510;48.122;11.576;2022-12-11T06:08:53;12.48;;;6.45;;
40046;SDS011;31510;48.122;11.576;2022-12-11T06:11:20;14.35;;;7.80;;
40046;SDS011;31510;48.122;11.576;2022-12-11T06:13:47;14.43;;;8.07;;
40046;SDS011;31510;48.122;11.576;2022-12-11T06:16:12;13.35;;;7.53;;
40046;SDS011;31510;48.122;11.576;2022-12-11T06:18:39;13.18;;;7.32;;
40046;SDS011;31510;48.122;11.576;2022-12-11T06:21:10;12.88;;;6.80;;
40046;SDS011;31510;48.122;11.576;2022-12-11T06:23:41;15.07;;;7.15;;
40046;SDS011;31510;48.122;11.576;2022-12-11T06:26:08;13.00;;;7.10;;
40046;SDS011;31510;48.122;11.576;2022-12-11T06:28:34;18.67;;;8.30;;
40046;SDS011;31510;48.122;11.576;2022-12-11T06:31:00;13.35;;;7.03;;
40046;SDS011;31510;48.122;11.576;2022-12-11T06:33:26;12.93;;;7.22;;
40046;SDS011;31510;48.122;11.576;2022-12-11T06:35:51;17.75;;;8.75;;
40046;SDS011;31510;48.122;11.576;2022-12-11T06:38:17;15.25;;;7.30;;
40046;SDS011;31510;48.122;11.576;2022-12-11T06:40:42;15.02;;;7.10;;
40046;SDS011;31510;48.122;11.576;2022-12-11T06:43:08;14.23;;;7.63;;
40046;SDS011;31510;48.122;11.576;2022-12-11T06:45:33;13.18;;;7.38;;
40046;SDS011;31510;48.122;11.576;2022-12-11T06:47:59;15.05;;;7.50;;
40046;SDS011;31510;48.122;11.576;2022-12-11T06:50:24;15.65;;;7.97;;
40046;SDS011;31510;48.122;11.576;2022-12-11T06:52:50;15.85;;;8.75;;
40046;SDS011;31510;48.122;11.576;2022-12-11T06:55:15;15.70;;;8.38;;
40046;SDS011;31510;48.122;11.576;2022-12-11T06:57:41;15.93;;;9.00;;
40046;SDS011;31510;48.122;11.576;2022-12-11T07:00:06;15.75;;;7.93;;
40046;SDS011;31510;48.122;11.576;2022-12-11T07:02:32;17.73;;;9.13;;
40046;SDS011;31510;48.122;11.576;2022-12-11T07:04:57;16.20;;;8.15;;
40046;SDS011;31510;48.122;11.576;2022-12-11T07:07:22;16.83;;;8.27;;
40046;SDS011;31510;48.122;11.576;2022-12-11T07:09:48;17.45;;;9.65;;
40046;SDS011;31510;48.122;11.576;2022-12-11T07:12:13;20.83;;;10.68;;
40046;SDS011;31510;48.122;11.576;2022-12-11T07:14:38;16.45;;;8.40;;
40046;SDS011;31510;48.122;11.576;2022-12-11T07:17:03;17.90;;;9.63;;
40046;SDS011;31510;48.122;11.576;2022-12-11T07:19:29;17.15;;;8.35;;
40046;SDS011;31510;48.122;11.576;2022-12-11T07:21:54;18.70;;;9.77;;
40046;SDS011;31510;48.122;11.576;2022-12-11T07:24:20;20.25;;;9.88;;
40046;SDS011;31510;48.122;11.576;2022-12-11T07:26:45;18.90;;;10.13;;
40046;SDS011;31510;48.122;11.576;2022-12-11T07:29:11;20.85;;;10.35;;
40046;SDS011;31510;48.122;11.576;2022-12-11T07:31:36;17.88;;;9.77;;
40046;SDS011;31510;48.122;11.576;2022-12-11T07:34:03;17.98;;;8.55;;
40046;SDS011;31510;48.122;11.576;2022-12-11T07:36:30;18.67;;;8.82;;
40046;SDS011;31510;48.122;11.576;2022-12-11T07:38:56;19.05;;;9.23;;
40046;SDS011;31510;48.122;11.576;2022-12-11T07:41:23;16.00;;;7.78;;
40046;SDS011;31510;48.122;11.576;2022-12-11T07:43:48;16.63;;;8.60;;
40046;SDS011;31510;48.122;11.576;2022-12-11T07:46:18;17.80;;;9.43;;
40046;SDS011;31510;48.122;11.576;2022-12-11T07:48:45;19.08;;;8.95;;
40046;SDS011;31510;48.122;11.576;2022-12-11T07:53:39;18.42;;;9.82;;
40046;SDS011;31510;48.122;11.576;2022-12-11T07:56:05;20.13;;;10.18;;
40046;SDS011;31510;48.122;11.576;2022-12-11T07:58:31;19.42;;;9.68;;
40046;SDS011;31510;48.122;11.576;2022-12-11T08:00:56;21.25;;;10.82;;
40046;SDS011;31510;48.122;11.576;2022-12-11T08:03:22;15.27;;;7.93;;
40046;SDS011;31510;48.122;11.576;2022-12-11T08:05:48;18.10;;;9.05;;
40046;SDS011;31510;48.122;11.576;2022-12-11T08:08:14;17.33;;;9.57;;
40046;SDS011;31510;48.122;11.576;2022-12-11T08:10:39;20.20;;;9.95;;
40046;SDS011;31510;48.122;11.576;2022-12-11T08:13:05;21.48;;;10.73;;
40046;SDS011;31510;48.122;11.576;2022-12-11T08:15:30;19.63;;;10.65;;
40046;SDS011;31510;48.122;11.576;2022-12-11T08:17:55;18.52;;;9.68;;
40046;SDS011;31510;48.122;11.576;2022-12-11T08:20:20;19.85;;;9.70;;
40046;SDS011;31510;48.122;11.576;2022-12-11T08:22:46;19.90;;;10.70;;
40046;SDS011;31510;48.122;11.576;2022-12-11T08:25:11;21.30;;;11.20;;
40046;SDS011;31510;48.122;11.576;2022-12-11T08:27:36;20.08;;;9.15;;
40046;SDS011;31510;48.122;11.576;2022-12-11T08:30:02;18.50;;;9.52;;
40046;SDS011;31510;48.122;11.576;2022-12-11T08:32:27;19.20;;;9.57;;
40046;SDS011;31510;48.122;11.576;2022-12-11T08:34:53;19.88;;;9.48;;
40046;SDS011;31510;48.122;11.576;2022-12-11T08:37:18;18.65;;;10.00;;
40046;SDS011;31510;48.122;11.576;2022-12-11T08:39:43;19.30;;;9.90;;
40046;SDS011;31510;48.122;11.576;2022-12-11T08:42:10;19.80;;;9.77;;
40046;SDS011;31510;48.122;11.576;2022-12-11T08:44:39;18.02;;;10.02;;
40046;SDS011;31510;48.122;11.576;2022-12-11T08:47:04;19.27;;;10.25;;
40046;SDS011;31510;48.122;11.576;2022-12-11T08:49:29;18.77;;;9.57;;
40046;SDS011;31510;48.122;11.576;2022-12-11T08:51:55;19.45;;;9.90;;
40046;SDS011;31510;48.122;11.576;2022-12-11T08:54:20;20.55;;;9.18;;
40046;SDS011;31510;48.122;11.576;2022-12-11T08:56:45;19.40;;;10.55;;
40046;SDS011;31510;48.122;11.576;2022-12-11T08:59:10;18.63;;;9.77;;
40046;SDS011;31510;48.122;11.576;2022-12-11T09:01:36;18.42;;;9.73;;
40046;SDS011;31510;48.122;11.576;2022-12-11T09:04:01;16.20;;;9.18;;
40046;SDS011;31510;48.122;11.576;2022-12-11T09:06:28;16.38;;;8.82;;
40046;SDS011;31510;48.122;11.576;2022-12-11T09:08:54;16.05;;;8.77;;
40046;SDS011;31510;48.122;11.576;2022-12-11T09:11:23;17.75;;;8.32;;
40046;SDS011;31510;48.122;11.576;2022-12-11T09:13:50;17.02;;;8.68;;
40046;SDS011;31510;48.122;11.576;2022-12-11T09:16:17;16.45;;;8.98;;
40046;SDS011;31510;48.122;11.576;2022-12-11T09:18:45;17.00;;;8.73;;
40046;SDS011;31510;48.122;11.576;2022-12-11T09:21:13;17.33;;;8.65;;
40046;SDS011;31510;48.122;11.576;2022-12-11T09:23:40;14.63;;;8.05;;
40046;SDS011;31510;48.122;11.576;2022-12-11T09:26:06;14.82;;;8.30;;
40046;SDS011;31510;48.122;11.576;2022-12-11T09:28:32;13.73;;;7.70;;
40046;SDS011;31510;48.122;11.576;2022-12-11T09:30:58;15.93;;;9.20;;
40046;SDS011;31510;48.122;11.576;2022-12-11T09:33:23;14.48;;;7.68;;
40046;SDS011;31510;48.122;11.576;2022-12-11T09:35:56;16.15;;;8.27;;
40046;SDS011;31510;48.122;11.576;2022-12-11T09:38:22;13.05;;;7.03;;
40046;SDS011;31510;48.122;11.576;2022-12-11T09:40:47;13.18;;;7.28;;
40046;SDS011;31510;48.122;11.576;2022-12-11T09:43:28;15.50;;;7.22;;
40046;SDS011;31510;48.122;11.576;2022-12-11T09:46:02;14.60;;;6.57;;
40046;SDS011;31510;48.122;11.576;2022-12-11T09:48:31;14.02;;;7.45;;
40046;SDS011;31510;48.122;11.576;2022-12-11T09:50:57;12.98;;;6.90;;
40046;SDS011;31510;48.122;11.576;2022-12-11T09:53:28;14.27;;;7.68;;
40046;SDS011;31510;48.122;11.576;2022-12-11T10:01:40;13.95;;;7.00;;
40046;SDS011;31510;48.122;11.576;2022-12-11T10:09:48;12.75;;;6.47;;
40046;SDS011;31510;48.122;11.576;2022-12-11T10:14:59;14.00;;;7.00;;
40046;SDS011;31510;48.122;11.576;2022-12-11T10:17:53;11.55;;;6.72;;
40046;SDS011;31510;48.122;11.576;2022-12-11T10:20:25;11.85;;;6.32;;
40046;SDS011;31510;48.122;11.576;2022-12-11T10:22:55;13.98;;;7.45;;
40046;SDS011;31510;48.122;11.576;2022-12-11T10:25:25;13.20;;;6.57;;
40046;SDS011;31510;48.122;11.576;2022-12-11T10:27:53;11.68;;;7.03;;
40046;SDS011;31510;48.122;11.576;2022-12-11T10:30:20;12.77;;;6.15;;
40046;SDS011;31510;48.122;11.576;2022-12-11T10:35:19;12.30;;;6.70;;
40046;SDS011;31510;48.122;11.576;2022-12-11T10:37:54;15.05;;;7.07;;
40046;SDS011;31510;48.122;11.576;2022-12-11T10:40:22;10.68;;;5.88;;
40046;SDS011;31510;48.122;11.576;2022-12-11T10:42:53;12.65;;;6.57;;
40046;SDS011;31510;48.122;11.576;2022-12-11T10:45:18;12.95;;;7.30;;
40046;SDS011;31510;48.122;11.576;2022-12-11T10:47:44;14.95;;;7.95;;
40046;SDS011;31510;48.122;11.576;2022-12-11T10:50:23;12.20;;;6.60;;
40046;SDS011;31510;48.122;11.576;2022-12-11T10:52:50;12.95;;;6.85;;
40046;SDS011;31510;48.122;11.576;2022-12-11T10:57:55;14.68;;;8.30;;
40046;SDS011;31510;48.122;11.576;2022-12-11T11:03:03;14.32;;;7.40;;
40046;SDS011;31510;48.122;11.576;2022-12-11T11:08:42;12.68;;;6.82;;
40046;SDS011;31510;48.122;11.576;2022-12-11T11:10:51;12.45;;;6.95;;
40046;SDS011;31510;48.122;11.576;2022-12-11T11:13:22;14.18;;;7.63;;
40046;SDS011;31510;48.122;11.576;2022-12-11T11:15:49;11.57;;;5.88;;
40046;SDS011;31510;48.122;11.576;2022-12-11T11:18:23;12.52;;;6.53;;
40046;SDS011;31510;48.122;11.576;2022-12-11T11:20:51;12.93;;;7.28;;
40046;SDS011;31510;48.122;11.576;2022-12-11T11:23:16;13.50;;;7.20;;
40046;SDS011;31510;48.122;11.576;2022-12-11T11:25:53;15.93;;;8.13;;
40046;SDS011;31510;48.122;11.576;2022-12-11T11:31:19;12.18;;;6.72;;
40046;SDS011;31510;48.122;11.576;2022-12-11T11:36:31;12.00;;;7.18;;
40046;SDS011;31510;48.122;11.576;2022-12-11T11:44:18;12.27;;;6.85;;
40046;SDS011;31510;48.122;11.576;2022-12-11T11:47:13;10.02;;;5.65;;
40046;SDS011;31510;48.122;11.576;2022-12-11T12:00:04;10.73;;;5.82;;
40046;SDS011;31510;48.122;11.576;2022-12-11T12:02:37;8.77;;;4.97;;
40046;SDS011;31510;48.122;11.576;2022-12-11T12:05:02;11.73;;;4.70;;
40046;SDS011;31510;48.122;11.576;2022-12-11T12:07:35;9.23;;;4.55;;
40046;SDS011;31510;48.122;11.576;2022-12-11T12:10:15;8.43;;;5.03;;
40046;SDS011;31510;48.122;11.576;2022-12-11T12:13:00;10.10;;;5.22;;
40046;SDS011;31510;48.122;11.576;2022-12-11T12:18:08;9.50;;;5.00;;
40046;SDS011;31510;48.122;11.576;2022-12-11T12:25:59;9.05;;;5.10;;
40046;SDS011;31510;48.122;11.576;2022-12-11T12:36:32;7.13;;;4.05;;
40046;SDS011;31510;48.122;11.576;2022-12-11T12:39:00;8.73;;;5.05;;
40046;SDS011;31510;48.122;11.576;2022-12-11T12:41:36;7.60;;;4.60;;
40046;SDS011;31510;48.122;11.576;2022-12-11T12:46:47;10.07;;;4.77;;
40046;SDS011;31510;48.122;11.576;2022-12-11T12:51:52;9.80;;;5.70;;
40046;SDS011;31510;48.122;11.576;2022-12-11T12:54:18;8.27;;;5.70;;
40046;SDS011;31510;48.122;11.576;2022-12-11T12:56:46;10.65;;;5.40;;
40046;SDS011;31510;48.122;11.576;2022-12-11T12:59:22;10.25;;;5.95;;
40046;SDS011;31510;48.122;11.576;2022-12-11T13:01:50;10.07;;;5.50;;
40046;SDS011;31510;48.122;11.576;2022-12-11T13:06:58;10.20;;;6.38;;
40046;SDS011;31510;48.122;11.576;2022-12-11T13:09:35;9.95;;;5.55;;
40046;SDS011;31510;48.122;11.576;2022-12-11T13:12:00;8.40;;;4.82;;
40046;SDS011;31510;48.122;11.576;2022-12-11T13:14:36;10.02;;;5.32;;
40046;SDS011;31510;48.122;11.576;2022-12-11T13:19:32;8.50;;;4.25;;
40046;SDS011;31510;48.122;11.576;2022-12-11T13:24:26;8.98;;;4.53;;
40046;SDS011;31510;48.122;11.576;2022-12-11T13:26:54;7.32;;;4.18;;
40046;SDS011;31510;48.122;11.576;2022-12-11T13:29:33;9.88;;;4.82;;
40046;SDS011;31510;48.122;11.576;2022-12-11T13:32:22;7.47;;;4.43;;
40046;SDS011;31510;48.122;11.576;2022-12-11T13:34:55;9.23;;;5.47;;
40046;SDS011;31510;48.122;11.576;2022-12-11T13:40:08;9.05;;;5.00;;
40046;SDS011;31510;48.122;11.576;2022-12-11T13:42:49;9.85;;;4.22;;
40046;SDS011;31510;48.122;11.576;2022-12-11T13:45:18;8.90;;;4.45;;
40046;SDS011;31510;48.122;11.576;2022-12-11T13:47:47;8.93;;;4.77;;
40046;SDS011;31510;48.122;11.576;2022-12-11T13:50:19;8.65;;;5.00;;
40046;SDS011;31510;48.122;11.576;2022-12-11T13:52:53;9.40;;;4.68;;
40046;SDS011;31510;48.122;11.576;2022-12-11T13:55:26;8.23;;;3.88;;
40046;SDS011;31510;48.122;11.576;2022-12-11T13:57:54;8.23;;;4.25;;
40046;SDS011;31510;48.122;11.576;2022-12-11T14:00:21;7.68;;;4.13;;
40046;SDS011;31510;48.122;11.576;2022-12-11T14:02:52;6.43;;;3.40;;
40046;SDS011;31510;48.122;11.576;2022-12-11T14:05:20;8.90;;;4.38;;
40046;SDS011;31510;48.122;11.576;2022-12-11T14:07:50;7.45;;;3.75;;
40046;SDS011;31510;48.122;11.576;2022-12-11T14:10:23;7.55;;;3.50;;
40046;SDS011;31510;48.122;11.576;2022-12-11T14:12:52;8.15;;;3.88;;
40046;SDS011;31510;48.122;11.576;2022-12-11T14:15:21;7.45;;;3.65;;
40046;SDS011;31510;48.122;11.576;2022-12-11T14:17:47;6.38;;;3.35;;
40046;SDS011;31510;48.122;11.576;2022-12-11T14:20:17;7.68;;;3.33;;
40046;SDS011;31510;48.122;11.576;2022-12-11T14:22:45;8.65;;;4.57;;
40046;SDS011;31510;48.122;11.576;2022-12-11T14:25:24;7.57;;;4.10;;
40046;SDS011;31510;48.122;11.576;2022-12-11T14:27:54;8.70;;;3.90;;
40046;SDS011;31510;48.122;11.576;2022-12-11T14:30:22;8.00;;;4.55;;
40046;SDS011;31510;48.122;11.576;2022-12-11T14:32:49;8.52;;;4.15;;
40046;SDS011;31510;48.122;11.576;2022-12-11T14:35:38;8.38;;;4.68;;
40046;SDS011;31510;48.122;11.576;2022-12-11T14:38:19;9.55;;;4.75;;
40046;SDS011;31510;48.122;11.576;2022-12-11T14:40:50;8.00;;;4.43;;
40046;SDS011;31510;48.122;11.576;2022-12-11T14:43:22;8.70;;;4.53;;
40046;SDS011;31510;48.122;11.576;2022-12-11T14:46:06;9.55;;;4.82;;
40046;SDS011;31510;48.122;11.576;2022-12-11T14:48:35;9.43;;;4.78;;
40046;SDS011;31510;48.122;11.576;2022-12-11T14:51:12;11.18;;;6.15;;
40046;SDS011;31510;48.122;11.576;2022-12-11T14:53:40;10.05;;;5.05;;
40046;SDS011;31510;48.122;11.576;2022-12-11T14:56:13;9.48;;;4.95;;
40046;SDS011;31510;48.122;11.576;2022-12-11T14:58:42;10.23;;;5.30;;
40046;SDS011;31510;48.122;11.576;2022-12-11T15:04:00;10.18;;;5.10;;
40046;SDS011;31510;48.122;11.576;2022-12-11T15:06:28;11.60;;;6.32;;
40046;SDS011;31510;48.122;11.576;2022-12-11T15:08:55;12.40;;;6.30;;
40046;SDS011;31510;48.122;11.576;2022-12-11T15:11:21;10.27;;;5.88;;
40046;SDS011;31510;48.122;11.576;2022-12-11T15:16:17;10.40;;;6.07;;
40046;SDS011;31510;48.122;11.576;2022-12-11T15:18:46;10.40;;;5.70;;
40046;SDS011;31510;48.122;11.576;2022-12-11T15:21:13;8.25;;;4.50;;
40046;SDS011;31510;48.122;11.576;2022-12-11T15:26:15;9.32;;;5.47;;
40046;SDS011;31510;48.122;11.576;2022-12-11T15:28:40;10.10;;;5.45;;
40046;SDS011;31510;48.122;11.576;2022-12-11T15:31:23;11.07;;;5.80;;
40046;SDS011;31510;48.122;11.576;2022-12-11T15:33:50;11.02;;;5.30;;
40046;SDS011;31510;48.122;11.576;2022-12-11T15:38:58;8.80;;;5.75;;
40046;SDS011;31510;48.122;11.576;2022-12-11T15:41:24;11.18;;;5.25;;
40046;SDS011;31510;48.122;11.576;2022-12-11T15:43:56;10.65;;;5.32;;
40046;SDS011;31510;48.122;11.576;2022-12-11T15:46:22;9.27;;;5.03;;
40046;SDS011;31510;48.122;11.576;2022-12-11T15:48:47;14.35;;;6.35;;
40046;SDS011;31510;48.122;11.576;2022-12-11T15:51:13;10.10;;;5.88;;
40046;SDS011;31510;48.122;11.576;2022-12-11T15:53:39;9.75;;;5.55;;
40046;SDS011;31510;48.122;11.576;2022-12-11T15:56:05;14.75;;;6.95;;
40046;SDS011;31510;48.122;11.576;2022-12-11T15:58:30;11.55;;;6.15;;
40046;SDS011;31510;48.122;11.576;2022-12-11T16:00:56;12.95;;;6.35;;
40046;SDS011;31510;48.122;11.576;2022-12-11T16:03:22;9.18;;;5.13;;
40046;SDS011;31510;48.122;11.576;2022-12-11T16:05:48;12.10;;;5.88;;
40046;SDS011;31510;48.122;11.576;2022-12-11T16:08:16;11.95;;;6.25;;
40046;SDS011;31510;48.122;11.576;2022-12-11T16:10:45;11.65;;;5.95;;
40046;SDS011;31510;48.122;11.576;2022-12-11T16:13:11;10.63;;;5.85;;